Time;durP1;ratioP1;P1;durP2;ratioP2;P2;SDS_P1;SDS_P2;PMS_P1;PMS_P2;Temp;Humidity;BMP_temperature;BMP_pressure;BME280_temperature;BME280_humidity;BME280_pressure;Samples;Min_cycle;Max_cycle;Signal;HPM_P1;HPM_P2
2022/04/12 00:01:51;;;;;;;3.20;2.90;;;;;;;5.26;67.95;99401.47;4996127;28;20034;-79
2022/04/12 00:04:17;;;;;;;3.30;2.85;;;;;;;5.40;68.46;99419.63;4996192;28;20073;-80
2022/04/12 00:06:43;;;;;;;3.90;2.97;;;;;;;5.40;68.54;99417.06;4996772;28;20123;-77
2022/04/12 00:09:09;;;;;;;3.33;3.00;;;;;;;5.39;68.10;99398.97;5013775;28;20149;-76
2022/04/12 00:11:35;;;;;;;4.88;3.35;;;;;;;5.46;67.88;99417.91;4997056;28;20508;-76
2022/04/12 00:14:01;;;;;;;4.15;3.13;;;;;;;5.34;68.67;99401.53;5012902;28;20401;-77
2022/04/12 00:16:26;;;;;;;5.03;3.40;;;;;;;5.48;68.05;99411.94;4995387;28;20038;-78
2022/04/12 00:19:05;;;;;;;4.45;3.40;;;;;;;5.32;67.99;99377.44;5008963;28;20433;-77
2022/04/12 00:21:34;;;;;;;4.97;3.05;;;;;;;5.44;67.43;99384.38;4975735;28;20050;-77
2022/04/12 00:24:04;;;;;;;4.22;3.40;;;;;;;5.35;67.57;99374.00;4992812;28;20049;-78
2022/04/12 00:26:31;;;;;;;3.10;2.80;;;;;;;5.36;67.79;99386.91;4975547;28;20038;-75
2022/04/12 00:28:57;;;;;;;3.15;2.80;;;;;;;5.26;68.15;99369.66;4960104;28;20053;-80
2022/04/12 00:31:22;;;;;;;3.20;2.83;;;;;;;5.21;67.03;99386.81;4993977;28;20085;-77
2022/04/12 00:33:48;;;;;;;3.95;3.00;;;;;;;5.10;67.98;99377.28;4944318;28;20089;-78
2022/04/12 00:36:14;;;;;;;3.80;2.95;;;;;;;5.10;68.27;99372.13;4992874;28;20046;-78
2022/04/12 00:38:40;;;;;;;4.32;3.50;;;;;;;5.16;68.16;99376.47;4976109;28;20088;-78
2022/04/12 00:41:08;;;;;;;4.20;3.50;;;;;;;5.19;67.50;99370.44;4992574;28;20058;-78
2022/04/12 00:43:35;;;;;;;4.25;3.40;;;;;;;5.20;67.94;99361.84;4975598;28;20065;-79
2022/04/12 00:46:02;;;;;;;3.85;3.40;;;;;;;5.20;67.81;99346.38;4993067;28;20038;-78
2022/04/12 00:48:29;;;;;;;4.63;3.47;;;;;;;5.20;68.18;99329.19;4991915;28;20564;-77
2022/04/12 00:50:56;;;;;;;4.93;3.80;;;;;;;5.24;68.19;99330.06;4959055;28;20057;-77
2022/04/12 00:53:23;;;;;;;3.95;3.42;;;;;;;5.24;67.45;99333.53;4975469;28;20429;-77
2022/04/12 00:55:49;;;;;;;4.43;3.78;;;;;;;5.23;68.20;99338.66;4997580;28;20038;-77
2022/04/12 00:58:15;;;;;;;4.90;4.07;;;;;;;5.12;67.64;99311.09;4976653;28;20046;-77
2022/04/12 01:00:41;;;;;;;5.45;4.10;;;;;;;5.21;68.11;99330.06;4975654;28;20112;-80
2022/04/12 01:03:07;;;;;;;5.45;4.95;;;;;;;5.22;67.75;99326.63;4975428;28;20205;-78
2022/04/12 01:05:35;;;;;;;5.25;4.43;;;;;;;5.19;67.74;99324.00;4991428;28;20099;-77
2022/04/12 01:08:02;;;;;;;5.78;4.72;;;;;;;5.21;68.33;99330.06;4992659;28;20057;-77
2022/04/12 01:10:29;;;;;;;5.80;4.70;;;;;;;5.25;68.64;99332.69;4975059;28;20038;-81
2022/04/12 01:12:55;;;;;;;5.10;4.55;;;;;;;5.15;68.09;99299.94;4975095;28;20046;-77
2022/04/12 01:15:23;;;;;;;5.40;4.78;;;;;;;5.34;67.89;99324.13;4974827;28;20045;-77
2022/04/12 01:17:50;;;;;;;6.32;5.20;;;;;;;5.44;67.77;99330.19;4991973;28;20510;-79
2022/04/12 01:20:19;;;;;;;6.35;5.32;;;;;;;5.49;68.23;99325.91;5026446;28;20054;-76
2022/04/12 01:23:03;;;;;;;6.03;5.18;;;;;;;5.47;68.16;99325.03;5025838;28;20069;-78
2022/04/12 01:25:33;;;;;;;7.45;4.78;;;;;;;5.47;68.01;99317.28;5013888;28;20108;-78
2022/04/12 01:27:59;;;;;;;6.53;5.50;;;;;;;5.51;67.38;99320.75;5013336;28;20046;-77
2022/04/12 01:30:25;;;;;;;7.28;4.70;;;;;;;5.37;67.17;99300.91;5001158;28;20040;-81
2022/04/12 01:32:51;;;;;;;5.32;4.63;;;;;;;5.30;67.80;99283.66;5001503;28;20046;-78
2022/04/12 01:35:16;;;;;;;6.00;5.03;;;;;;;5.44;67.46;99317.28;4995453;28;20106;-77
2022/04/12 01:37:43;;;;;;;7.68;5.07;;;;;;;5.34;67.42;99311.22;4994306;28;20045;-77
2022/04/12 01:40:09;;;;;;;7.18;4.90;;;;;;;5.39;67.82;99325.00;4977894;28;20052;-77
2022/04/12 01:42:38;;;;;;;4.72;3.92;;;;;;;5.37;66.82;99318.97;4994799;28;20037;-79
2022/04/12 01:45:06;;;;;;;5.00;4.05;;;;;;;5.21;67.54;99288.78;4996606;28;20084;-78
2022/04/12 01:47:32;;;;;;;4.40;3.47;;;;;;;5.25;67.88;99293.97;5011954;28;20041;-76
2022/04/12 01:49:58;;;;;;;5.82;3.50;;;;;;;5.26;68.21;99290.53;5012266;28;20037;-78
2022/04/12 01:52:24;;;;;;;3.88;3.47;;;;;;;5.31;67.55;99292.25;5011392;28;20037;-76
2022/04/12 01:54:50;;;;;;;4.40;3.63;;;;;;;5.26;67.62;99293.13;5011297;28;20552;-77
2022/04/12 01:57:16;;;;;;;4.85;3.50;;;;;;;5.00;67.66;99253.44;4997376;28;20049;-79
2022/04/12 01:59:42;;;;;;;4.00;3.55;;;;;;;5.14;67.73;99287.88;5015343;28;20049;-78
2022/04/12 02:02:09;;;;;;;5.00;3.70;;;;;;;5.14;67.90;99280.16;4994420;28;20049;-77
2022/04/12 02:04:35;;;;;;;4.95;3.75;;;;;;;5.32;67.91;99301.72;4994217;28;20060;-79
2022/04/12 02:07:01;;;;;;;5.10;3.25;;;;;;;5.25;67.07;99299.13;5011014;28;20463;-77
2022/04/12 02:09:27;;;;;;;4.07;3.50;;;;;;;5.37;67.81;99290.59;5011136;28;20037;-76
2022/04/12 02:11:56;;;;;;;4.75;3.70;;;;;;;5.38;67.97;99273.38;4977359;28;20049;-78
2022/04/12 02:14:22;;;;;;;4.70;3.67;;;;;;;5.30;67.97;99267.34;4993941;28;20042;-76
2022/04/12 02:16:49;;;;;;;4.28;3.63;;;;;;;5.39;67.70;99294.03;5012385;28;20037;-78
2022/04/12 02:19:15;;;;;;;5.30;4.18;;;;;;;5.28;67.67;99257.00;5015243;28;20580;-78
2022/04/12 02:21:41;;;;;;;4.85;4.10;;;;;;;5.28;68.04;99264.75;4993564;28;20148;-78
2022/04/12 02:24:07;;;;;;;4.80;4.28;;;;;;;5.39;67.26;99283.72;4993609;28;20611;-76
2022/04/12 02:26:34;;;;;;;5.70;4.32;;;;;;;5.38;67.64;99292.31;5010615;28;20056;-77
2022/04/12 02:28:59;;;;;;;7.53;4.95;;;;;;;5.28;68.01;99296.56;4993449;28;20029;-78
2022/04/12 02:31:25;;;;;;;8.10;5.20;;;;;;;5.33;67.73;99295.72;5010660;28;20488;-78
2022/04/12 02:33:51;;;;;;;6.93;5.00;;;;;;;5.26;67.57;99262.16;4993582;28;20041;-81
2022/04/12 02:36:17;;;;;;;5.97;4.90;;;;;;;5.38;68.01;99273.38;4993804;28;20045;-78
2022/04/12 02:38:43;;;;;;;6.45;5.28;;;;;;;5.40;68.15;99269.09;5012112;28;20038;-78
2022/04/12 02:41:10;;;;;;;5.85;5.00;;;;;;;5.27;68.58;99260.44;4978165;28;20052;-78
2022/04/12 02:43:36;;;;;;;7.18;5.25;;;;;;;5.38;68.23;99279.41;5011554;28;20041;-77
2022/04/12 02:46:02;;;;;;;6.80;5.63;;;;;;;5.52;67.95;99302.66;4995292;28;20045;-80
2022/04/12 02:48:28;;;;;;;7.82;6.38;;;;;;;5.47;67.78;99285.44;4995110;28;20041;-79
2022/04/12 02:50:55;;;;;;;8.30;6.30;;;;;;;5.45;67.41;99308.69;4995390;28;20417;-79
2022/04/12 02:53:21;;;;;;;8.30;6.60;;;;;;;5.42;67.66;99288.03;4998888;28;20140;-79
2022/04/12 02:55:46;;;;;;;8.50;6.55;;;;;;;5.45;67.68;99282.88;4987963;28;20041;-78
2022/04/12 02:58:12;;;;;;;8.15;6.78;;;;;;;5.42;68.02;99273.38;5013794;28;20083;-80
2022/04/12 03:00:38;;;;;;;8.35;6.95;;;;;;;5.39;67.90;99275.97;5005877;28;20046;-79
2022/04/12 03:03:07;;;;;;;7.72;6.50;;;;;;;5.51;68.55;99282.03;4995810;28;20132;-79
2022/04/12 03:05:33;;;;;;;8.90;7.03;;;;;;;5.49;68.39;99274.28;5012573;28;20042;-81
2022/04/12 03:07:59;;;;;;;8.80;6.45;;;;;;;5.50;67.11;99277.72;4994367;28;20540;-77
2022/04/12 03:10:25;;;;;;;10.90;7.45;;;;;;;5.36;67.97;99270.81;5012453;28;20497;-79
2022/04/12 03:12:51;;;;;;;10.05;7.85;;;;;;;5.43;67.32;99274.25;4994674;28;20037;-79
2022/04/12 03:15:17;;;;;;;9.73;6.88;;;;;;;5.48;68.22;99284.59;4978583;28;20061;-79
2022/04/12 03:17:43;;;;;;;8.50;6.30;;;;;;;5.12;67.81;99219.97;4997311;28;20069;-79
2022/04/12 03:20:09;;;;;;;8.35;6.28;;;;;;;5.46;67.78;99268.25;4965596;28;20058;-80
2022/04/12 03:22:35;;;;;;;7.15;6.18;;;;;;;5.66;67.59;99288.97;5000729;28;20505;-82
2022/04/12 03:25:02;;;;;;;9.68;7.32;;;;;;;5.62;68.01;99289.81;4982067;28;20571;-79
2022/04/12 03:27:29;;;;;;;9.48;6.70;;;;;;;5.33;67.71;99245.00;4967512;28;20465;-80
2022/04/12 03:29:56;;;;;;;11.55;7.70;;;;;;;5.65;67.94;99290.66;4995814;28;20591;-76
2022/04/12 03:32:22;;;;;;;10.55;7.05;;;;;;;5.65;67.65;99284.66;5012493;28;20046;-77
2022/04/12 03:34:50;;;;;;;9.90;7.00;;;;;;;5.39;67.77;99247.59;4978701;28;20145;-78
2022/04/12 03:37:15;;;;;;;12.95;7.88;;;;;;;5.52;68.13;99263.09;5013449;28;20394;-79
2022/04/12 03:39:43;;;;;;;12.18;7.68;;;;;;;5.70;67.85;99293.28;4984320;28;20056;-78
2022/04/12 03:42:12;;;;;;;11.35;8.10;;;;;;;5.70;68.39;99298.44;5012565;28;20045;-78
2022/04/12 03:44:38;;;;;;;11.75;8.35;;;;;;;5.69;68.28;99282.06;5011329;28;20188;-81
2022/04/12 03:47:05;;;;;;;11.40;7.97;;;;;;;5.59;68.49;99259.69;4997645;28;20472;-78
2022/04/12 03:49:31;;;;;;;14.57;8.23;;;;;;;5.58;68.08;99251.06;5016317;28;20477;-80
2022/04/12 03:51:56;;;;;;;12.55;8.15;;;;;;;5.56;68.09;99257.94;4998200;28;20128;-76
2022/04/12 03:54:24;;;;;;;11.88;8.05;;;;;;;5.67;68.32;99267.47;4997775;28;20042;-81
2022/04/12 03:56:50;;;;;;;13.70;8.40;;;;;;;5.87;68.43;99283.84;4983287;28;20480;-80
2022/04/12 03:59:16;;;;;;;12.20;8.00;;;;;;;5.85;68.31;99287.28;5014742;28;20065;-79
2022/04/12 04:01:42;;;;;;;13.55;7.80;;;;;;;5.86;67.78;99291.56;5014362;28;20198;-82
2022/04/12 04:04:09;;;;;;;13.13;8.02;;;;;;;5.77;67.09;99286.41;4996002;28;20046;-78
2022/04/12 04:06:35;;;;;;;12.10;8.05;;;;;;;5.85;68.24;99300.19;4995746;28;20425;-78
2022/04/12 04:09:01;;;;;;;13.88;7.30;;;;;;;5.90;68.34;99292.47;5013785;28;20141;-78
2022/04/12 04:11:27;;;;;;;13.40;6.95;;;;;;;5.81;68.18;99275.25;4963859;28;20140;-77
2022/04/12 04:13:53;;;;;;;16.08;8.07;;;;;;;5.91;68.18;99289.88;4995785;28;20223;-79
2022/04/12 04:16:19;;;;;;;12.73;7.47;;;;;;;5.90;68.50;99282.13;5012296;28;20398;-78
2022/04/12 04:18:45;;;;;;;14.55;7.85;;;;;;;5.98;67.80;99309.69;4994657;28;20052;-77
2022/04/12 04:21:11;;;;;;;14.20;7.65;;;;;;;5.99;67.47;99310.53;4995023;28;20066;-77
2022/04/12 04:23:37;;;;;;;10.65;7.30;;;;;;;5.97;68.15;99307.97;4976977;28;20524;-79
2022/04/12 04:26:03;;;;;;;12.75;7.10;;;;;;;5.92;68.25;99288.16;4976745;28;20120;-80
2022/04/12 04:28:30;;;;;;;12.15;6.97;;;;;;;6.12;68.41;99309.75;5000619;28;20041;-77
2022/04/12 04:30:56;;;;;;;10.55;6.18;;;;;;;6.17;67.67;99302.00;5006774;28;20516;-80
2022/04/12 04:33:22;;;;;;;10.15;5.78;;;;;;;6.08;67.94;99286.47;5003184;28;20104;-78
2022/04/12 04:35:49;;;;;;;11.50;6.70;;;;;;;6.16;68.36;99308.91;5011712;28;20085;-78
2022/04/12 04:38:15;;;;;;;10.27;5.90;;;;;;;6.22;68.49;99315.78;4982026;28;20038;-78
2022/04/12 04:40:42;;;;;;;10.98;5.78;;;;;;;6.31;68.28;99309.78;4965560;28;20157;-82
2022/04/12 04:43:08;;;;;;;15.57;5.85;;;;;;;6.29;68.07;99311.50;4959482;28;20070;-77
2022/04/12 04:45:35;;;;;;;14.77;5.90;;;;;;;6.25;68.12;99292.56;4976097;28;20093;-79
2022/04/12 04:48:03;;;;;;;12.00;5.70;;;;;;;6.37;67.33;99306.31;4943738;28;20089;-79
2022/04/12 04:50:31;;;;;;;9.25;5.15;;;;;;;6.28;68.60;99277.06;4992079;28;20051;-79
2022/04/12 04:53:03;;;;;;;8.20;5.32;;;;;;;6.41;67.70;99308.91;4977529;28;20038;-79
2022/04/12 04:55:30;;;;;;;11.52;5.72;;;;;;;6.39;68.13;99273.59;4975593;28;20057;-78
2022/04/12 04:57:58;;;;;;;8.38;5.97;;;;;;;6.47;67.73;99288.22;4992369;28;20038;-79
2022/04/12 05:00:25;;;;;;;11.00;6.22;;;;;;;6.62;68.03;99297.72;4993966;28;20517;-81
2022/04/12 05:02:53;;;;;;;10.18;5.68;;;;;;;6.58;68.24;99275.28;4976972;28;20569;-80
2022/04/12 05:05:20;;;;;;;10.07;5.30;;;;;;;6.80;67.62;99282.19;4993408;28;20074;-79
2022/04/12 05:07:49;;;;;;;9.88;5.57;;;;;;;6.74;68.30;99252.00;4993778;28;20409;-78
2022/04/12 05:10:17;;;;;;;11.85;5.95;;;;;;;6.92;67.11;99277.84;4992362;28;20042;-78
2022/04/12 05:12:43;;;;;;;12.05;5.75;;;;;;;6.93;67.60;99287.31;4974638;28;20038;-80
2022/04/12 05:15:09;;;;;;;9.52;5.55;;;;;;;6.94;67.66;99290.75;4974700;28;20595;-80
2022/04/12 05:17:36;;;;;;;12.00;5.50;;;;;;;6.93;67.21;99289.91;4975402;28;20058;-80
2022/04/12 05:20:09;;;;;;;13.48;5.30;;;;;;;6.78;67.34;99251.13;4987937;28;20402;-77
2022/04/12 05:22:35;;;;;;;11.00;5.55;;;;;;;7.06;66.91;99295.03;4994351;28;20046;-78
2022/04/12 05:25:01;;;;;;;9.80;5.55;;;;;;;7.02;67.49;99311.44;5009750;28;20068;-78
2022/04/12 05:27:34;;;;;;;7.65;5.00;;;;;;;6.95;67.86;99289.91;4994329;28;20132;-80
2022/04/12 05:30:08;;;;;;;11.13;5.47;;;;;;;7.12;67.63;99313.16;5012037;28;20033;-79
2022/04/12 05:32:35;;;;;;;8.88;6.00;;;;;;;7.13;67.33;99307.13;5001105;28;20046;-79
2022/04/12 05:35:01;;;;;;;9.20;5.97;;;;;;;7.15;66.61;99320.91;5017906;28;20069;-76
2022/04/12 05:37:31;;;;;;;8.52;6.05;;;;;;;6.96;66.59;99329.53;4998391;28;20101;-79
2022/04/12 05:39:57;;;;;;;11.88;5.88;;;;;;;6.98;67.06;99333.00;5012930;28;20034;-78
2022/04/12 05:42:23;;;;;;;8.93;5.57;;;;;;;7.11;67.57;99324.38;5010792;28;20127;-80
2022/04/12 05:44:50;;;;;;;10.02;5.95;;;;;;;7.09;66.88;99298.47;4996282;28;20052;-77
2022/04/12 05:47:19;;;;;;;10.60;5.70;;;;;;;6.99;67.16;99264.88;4964846;28;20175;-77
2022/04/12 05:49:45;;;;;;;10.00;6.00;;;;;;;7.18;67.08;99287.22;4995053;28;20138;-79
2022/04/12 05:52:11;;;;;;;9.02;5.70;;;;;;;7.39;66.96;99311.34;4995652;28;20105;-76
2022/04/12 05:54:37;;;;;;;9.75;5.90;;;;;;;7.45;66.95;99295.78;4995937;28;20385;-79
2022/04/12 05:57:03;;;;;;;9.57;6.20;;;;;;;7.65;66.91;99307.75;4995102;28;20045;-79
2022/04/12 05:59:29;;;;;;;9.65;5.80;;;;;;;7.65;66.93;99298.28;4979814;28;20062;-78
2022/04/12 06:01:55;;;;;;;8.85;5.55;;;;;;;7.71;66.60;99299.13;5014134;28;20153;-78
2022/04/12 06:04:21;;;;;;;9.27;5.75;;;;;;;7.79;66.37;99295.63;4971434;28;20037;-78
2022/04/12 06:06:47;;;;;;;10.32;5.78;;;;;;;7.77;65.94;99288.72;5000834;28;20046;-79
2022/04/12 06:09:23;;;;;;;8.07;5.80;;;;;;;7.81;66.58;99283.53;4994561;28;20070;-76
2022/04/12 06:11:49;;;;;;;11.02;6.05;;;;;;;7.78;66.32;99270.59;5025163;28;20127;-79
2022/04/12 06:14:15;;;;;;;11.13;6.47;;;;;;;7.87;66.39;99277.44;5001077;28;20570;-77
2022/04/12 06:16:44;;;;;;;10.18;5.90;;;;;;;8.03;65.91;99292.88;5021391;28;20042;-76
2022/04/12 06:19:10;;;;;;;11.30;6.73;;;;;;;7.87;65.42;99269.66;4878855;28;4125888;-77
2022/04/12 06:21:36;;;;;;;13.18;7.13;;;;;;;8.02;66.29;99276.50;5011460;28;20292;-76
2022/04/12 06:24:05;;;;;;;9.68;6.20;;;;;;;8.23;66.25;99284.97;5008759;28;20068;-78
2022/04/12 06:26:35;;;;;;;11.93;6.78;;;;;;;8.34;65.68;99272.78;5010062;28;20026;-76
2022/04/12 06:29:01;;;;;;;9.32;6.38;;;;;;;8.59;65.89;99283.84;5011239;28;20134;-76
2022/04/12 06:31:27;;;;;;;11.77;6.57;;;;;;;8.58;65.79;99263.09;4984822;28;20050;-81
2022/04/12 06:33:53;;;;;;;9.60;6.50;;;;;;;8.63;65.18;99284.66;4979448;28;20051;-81
2022/04/12 06:36:19;;;;;;;10.73;7.00;;;;;;;8.66;64.09;99299.34;4976067;28;20525;-78
2022/04/12 06:38:45;;;;;;;12.35;7.03;;;;;;;8.51;64.79;99283.03;4975363;28;20138;-82
2022/04/12 06:41:11;;;;;;;12.52;6.75;;;;;;;8.51;64.78;99284.75;4996081;28;20118;-80
2022/04/12 06:43:37;;;;;;;13.05;6.90;;;;;;;8.49;64.92;99286.53;4997074;28;20066;-78
2022/04/12 06:46:03;;;;;;;13.75;8.50;;;;;;;8.64;65.18;99285.50;4992209;28;20061;-81
2022/04/12 06:48:29;;;;;;;15.93;8.77;;;;;;;8.82;64.84;99307.84;4976241;28;20112;-79
2022/04/12 06:50:56;;;;;;;13.18;8.02;;;;;;;8.71;64.97;99269.91;4975807;28;20318;-77
2022/04/12 06:53:23;;;;;;;12.68;8.30;;;;;;;8.81;64.22;99295.75;4992178;28;20034;-79
2022/04/12 06:55:49;;;;;;;12.50;7.63;;;;;;;8.80;65.00;99281.06;4991926;28;20038;-77
2022/04/12 06:58:21;;;;;;;10.77;7.28;;;;;;;8.91;64.43;99280.94;4975139;28;20569;-79
2022/04/12 07:00:55;;;;;;;12.68;7.10;;;;;;;8.86;64.19;99271.47;4975854;28;20109;-83
2022/04/12 07:03:21;;;;;;;13.93;7.95;;;;;;;9.02;63.88;99298.13;4991857;28;20125;-81
2022/04/12 07:05:49;;;;;;;12.73;7.97;;;;;;;9.17;64.16;99298.81;4974568;28;20081;-80
2022/04/12 07:08:25;;;;;;;16.50;9.75;;;;;;;9.15;64.09;99264.25;4976898;28;20041;-80
2022/04/12 07:10:51;;;;;;;17.00;10.25;;;;;;;9.34;64.06;99294.31;4974465;28;20050;-79
2022/04/12 07:13:39;;;;;;;11.77;7.80;;;;;;;8.92;63.94;99216.06;4975929;28;20038;-78
2022/04/12 07:16:14;;;;;;;13.80;8.30;;;;;;;9.22;63.37;99252.06;4978397;28;20490;-79
2022/04/12 07:18:47;;;;;;;11.65;7.32;;;;;;;9.49;63.98;99314.03;4978348;28;20058;-80
2022/04/12 07:21:21;;;;;;;13.07;7.40;;;;;;;9.65;63.20;99299.09;4993655;28;20105;-78
2022/04/12 07:23:53;;;;;;;12.57;7.47;;;;;;;9.09;63.62;99183.84;4965744;28;20038;-79
2022/04/12 07:26:19;;;;;;;12.65;7.70;;;;;;;9.85;63.32;99303.16;4982375;28;20096;-78
2022/04/12 07:28:45;;;;;;;12.90;8.23;;;;;;;9.81;62.97;99304.13;5005413;28;20064;-79
2022/04/12 07:31:11;;;;;;;14.07;8.23;;;;;;;9.86;62.61;99304.06;5001698;28;20526;-78
2022/04/12 07:33:37;;;;;;;15.27;8.32;;;;;;;9.94;61.95;99308.25;4967320;28;20494;-80
2022/04/12 07:36:04;;;;;;;12.48;8.07;;;;;;;9.84;62.88;99292.81;4998545;28;20053;-81
2022/04/12 07:38:30;;;;;;;16.00;8.55;;;;;;;9.83;62.30;99289.34;4977571;28;20038;-81
2022/04/12 07:40:56;;;;;;;16.42;9.40;;;;;;;10.09;62.47;99317.59;4961691;28;20061;-78
2022/04/12 07:43:22;;;;;;;16.83;8.13;;;;;;;10.14;62.66;99327.06;4980342;28;20046;-80
2022/04/12 07:45:50;;;;;;;14.25;8.98;;;;;;;10.31;62.14;99329.38;5012160;28;20112;-78
2022/04/12 07:48:16;;;;;;;14.52;8.77;;;;;;;10.41;61.96;99320.59;4995665;28;20038;-78
2022/04/12 07:50:42;;;;;;;14.40;8.70;;;;;;;10.48;62.32;99327.41;4990962;28;20083;-78
2022/04/12 07:53:08;;;;;;;15.77;9.23;;;;;;;10.48;61.74;99332.59;4990061;28;20042;-79
2022/04/12 07:55:34;;;;;;;16.23;9.32;;;;;;;10.44;61.87;99330.09;4977851;28;20042;-79
2022/04/12 07:58:00;;;;;;;14.50;9.35;;;;;;;10.50;61.05;99343.84;4977794;28;20450;-79
2022/04/12 08:00:27;;;;;;;16.67;9.23;;;;;;;10.40;61.69;99324.94;4960810;28;20070;-81
2022/04/12 08:02:54;;;;;;;18.90;9.43;;;;;;;10.34;61.73;99305.94;4977727;28;20414;-78
2022/04/12 08:05:20;;;;;;;16.75;10.23;;;;;;;10.54;61.07;99335.13;4977173;28;20104;-78
2022/04/12 08:07:48;;;;;;;15.95;9.95;;;;;;;10.70;61.23;99332.28;4994839;28;20041;-80
2022/04/12 08:10:16;;;;;;;17.65;9.73;;;;;;;10.69;61.23;99307.16;4997946;28;20653;-80
2022/04/12 08:12:43;;;;;;;15.10;8.93;;;;;;;10.94;61.17;99333.59;4965956;28;20065;-79
2022/04/12 08:15:11;;;;;;;20.63;9.63;;;;;;;11.03;61.05;99340.38;4982444;28;20125;-78
2022/04/12 08:17:37;;;;;;;16.10;9.60;;;;;;;11.11;60.42;99330.69;4998981;28;20505;-81
2022/04/12 08:20:05;;;;;;;15.85;8.98;;;;;;;11.10;60.66;99310.75;4981989;28;20061;-79
2022/04/12 08:22:32;;;;;;;15.60;9.25;;;;;;;11.28;60.34;99330.34;4982960;28;20054;-81
2022/04/12 08:25:01;;;;;;;14.27;9.45;;;;;;;11.17;60.02;99327.09;4997847;28;20395;-81
2022/04/12 08:27:28;;;;;;;22.20;11.93;;;;;;;11.13;60.37;99323.72;4995191;28;20042;-80
2022/04/12 08:29:56;;;;;;;15.45;9.48;;;;;;;11.26;60.10;99323.47;4993299;28;20129;-82
2022/04/12 08:32:23;;;;;;;17.60;10.48;;;;;;;11.14;59.85;99275.06;4977137;28;20112;-80
2022/04/12 08:34:53;;;;;;;16.30;10.05;;;;;;;11.40;59.71;99292.78;4977341;28;20128;-80
2022/04/12 08:37:22;;;;;;;18.83;11.70;;;;;;;11.15;60.23;99232.53;4993790;28;20105;-80
2022/04/12 08:39:48;;;;;;;16.95;10.52;;;;;;;11.71;59.85;99284.34;4994871;28;20625;-79
2022/04/12 08:42:14;;;;;;;20.58;10.93;;;;;;;11.93;60.28;99278.63;4993904;28;20565;-81
2022/04/12 08:44:45;;;;;;;18.40;10.93;;;;;;;12.22;59.67;99305.84;4976324;28;20034;-80
2022/04/12 08:47:15;;;;;;;17.05;11.07;;;;;;;12.16;58.68;99278.13;4976007;28;20122;-81
2022/04/12 08:49:41;;;;;;;19.08;10.70;;;;;;;12.35;59.11;99298.56;4960149;28;20026;-79
2022/04/12 08:52:11;;;;;;;18.60;11.15;;;;;;;12.32;58.79;99264.72;4994408;28;20461;-79
2022/04/12 08:54:43;;;;;;;15.90;10.77;;;;;;;12.65;58.72;99296.09;4963067;28;20046;-81
2022/04/12 08:57:11;;;;;;;16.13;10.88;;;;;;;12.70;57.42;99303.78;4994980;28;20044;-81
2022/04/12 08:59:38;;;;;;;20.33;11.70;;;;;;;12.81;57.81;99300.00;4997001;28;20044;-79
2022/04/12 09:02:09;;;;;;;16.00;10.90;;;;;;;13.01;57.70;99293.41;4996078;28;20046;-81
2022/04/12 09:04:36;;;;;;;20.13;11.43;;;;;;;13.16;57.23;99286.06;4978080;28;20121;-80
2022/04/12 09:07:08;;;;;;;18.25;12.20;;;;;;;13.33;57.11;99285.59;4978379;28;20549;-77
2022/04/12 09:09:38;;;;;;;18.45;11.20;;;;;;;13.58;56.79;99284.88;4932112;28;20069;-81
2022/04/12 09:12:09;;;;;;;19.80;12.40;;;;;;;13.65;56.60;99286.44;4977229;28;20054;-78
2022/04/12 09:14:43;;;;;;;18.33;12.53;;;;;;;13.75;55.93;99280.03;4993071;28;20507;-78
2022/04/12 09:17:30;;;;;;;20.55;11.93;;;;;;;13.77;56.10;99301.78;4994349;28;20482;-78
2022/04/12 09:19:56;;;;;;;18.33;11.80;;;;;;;13.63;55.55;99302.19;4995826;28;20049;-80
2022/04/12 09:22:24;;;;;;;21.95;11.82;;;;;;;13.52;56.06;99288.53;4992089;28;20062;-76
2022/04/12 09:25:02;;;;;;;22.70;12.57;;;;;;;13.70;55.89;99301.06;4994073;28;20110;-77
2022/04/12 09:27:33;;;;;;;18.00;12.13;;;;;;;13.96;55.98;99311.66;4982510;28;20050;-76
2022/04/12 09:30:02;;;;;;;18.13;12.32;;;;;;;14.19;55.65;99304.88;4994484;28;20097;-77
2022/04/12 09:32:36;;;;;;;18.58;11.88;;;;;;;14.40;54.83;99304.19;4976497;28;20513;-80
2022/04/12 09:35:03;;;;;;;18.77;13.00;;;;;;;14.29;54.42;99287.94;4975234;28;20038;-77
2022/04/12 09:37:32;;;;;;;17.35;12.43;;;;;;;14.32;54.73;99303.56;4991723;28;20092;-79
2022/04/12 09:40:01;;;;;;;23.15;13.32;;;;;;;14.45;54.48;99311.88;4992081;28;20034;-79
2022/04/12 09:42:36;;;;;;;19.35;12.43;;;;;;;14.52;54.08;99312.50;4992121;28;20502;-79
2022/04/12 09:45:04;;;;;;;21.77;13.48;;;;;;;14.46;53.78;99280.41;4991009;28;20062;-79
2022/04/12 09:47:33;;;;;;;24.38;13.13;;;;;;;14.60;53.96;99285.16;4991032;28;20065;-78
2022/04/12 09:50:00;;;;;;;22.08;13.02;;;;;;;14.90;53.56;99292.94;4992698;28;20639;-77
2022/04/12 09:52:27;;;;;;;19.30;13.00;;;;;;;15.15;53.20;99294.69;4959746;28;20494;-78
2022/04/12 09:54:56;;;;;;;19.55;13.73;;;;;;;15.38;52.60;99308.72;4993479;28;20529;-78
2022/04/12 09:57:23;;;;;;;21.30;12.80;;;;;;;15.25;52.43;99294.34;4999595;28;20135;-78
2022/04/12 09:59:50;;;;;;;20.38;13.48;;;;;;;15.34;52.47;99300.09;4985906;28;20144;-77
2022/04/12 10:02:16;;;;;;;21.65;13.15;;;;;;;15.54;52.52;99313.41;4996862;28;20105;-78
2022/04/12 10:04:43;;;;;;;25.27;15.02;;;;;;;15.64;51.71;99312.16;4976988;28;20486;-82
2022/04/12 10:07:14;;;;;;;22.63;14.40;;;;;;;15.78;51.90;99324.72;4993732;28;20049;-80
2022/04/12 10:09:42;;;;;;;22.48;15.57;;;;;;;15.74;51.57;99310.03;4991620;28;20125;-79
2022/04/12 10:12:09;;;;;;;24.63;15.23;;;;;;;15.94;51.93;99312.78;4974641;28;20222;-78
2022/04/12 10:14:36;;;;;;;20.90;15.07;;;;;;;16.29;51.37;99328.06;4957691;28;20436;-79
2022/04/12 10:17:02;;;;;;;23.17;15.27;;;;;;;16.13;51.19;99319.06;4958378;28;20120;-81
2022/04/12 10:19:29;;;;;;;22.90;14.45;;;;;;;16.10;51.06;99333.16;4981552;28;20137;-80
2022/04/12 10:21:55;;;;;;;26.17;15.93;;;;;;;15.99;50.42;99330.97;4993495;28;20037;-78
2022/04/12 10:24:22;;;;;;;22.17;15.57;;;;;;;15.80;50.74;99313.28;4977897;28;20128;-79
2022/04/12 10:26:50;;;;;;;26.38;15.77;;;;;;;15.73;50.69;99317.03;4993793;28;20073;-78
2022/04/12 10:29:16;;;;;;;22.83;16.40;;;;;;;15.93;50.05;99332.06;4993703;28;20053;-78
2022/04/12 10:31:59;;;;;;;24.88;16.40;;;;;;;15.88;50.61;99323.50;5014916;28;20049;-79
2022/04/12 10:34:25;;;;;;;23.48;15.88;;;;;;;16.05;50.43;99325.47;5021343;28;20401;-78
2022/04/12 10:37:12;;;;;;;25.50;16.30;;;;;;;16.22;50.00;99330.03;5019243;28;20118;-80
2022/04/12 10:39:46;;;;;;;27.48;17.60;;;;;;;16.38;49.85;99313.69;4976794;28;20117;-80
2022/04/12 10:42:21;;;;;;;21.42;13.82;;;;;;;16.41;49.74;99306.53;4976933;28;20041;-79
2022/04/12 10:44:56;;;;;;;22.50;14.52;;;;;;;16.54;49.80;99314.78;4992459;28;20580;-77
2022/04/12 10:47:34;;;;;;;26.75;20.63;;;;;;;16.61;49.58;99311.91;4960462;28;20461;-78
2022/04/12 10:50:01;;;;;;;26.95;15.40;;;;;;;16.66;48.68;99316.03;4992733;28;20037;-81
2022/04/12 10:52:51;;;;;;;21.27;14.63;;;;;;;16.62;48.72;99318.88;4993070;28;20165;-81
2022/04/12 10:55:22;;;;;;;20.65;14.25;;;;;;;16.56;49.00;99291.06;5008355;28;20045;-79
2022/04/12 10:57:49;;;;;;;22.38;15.02;;;;;;;16.66;49.01;99307.31;4999529;28;20108;-79
2022/04/12 11:00:17;;;;;;;21.92;14.18;;;;;;;16.69;48.88;99317.66;5013757;28;20101;-79
2022/04/12 11:02:53;;;;;;;22.35;14.40;;;;;;;16.57;49.11;99300.66;4988690;28;20045;-80
2022/04/12 11:05:38;;;;;;;22.77;13.70;;;;;;;16.81;49.40;99308.41;4985570;28;20033;-78
2022/04/12 11:08:32;;;;;;;25.48;14.23;;;;;;;17.11;48.91;99306.28;5019342;28;20056;-77
2022/04/12 11:10:59;;;;;;;22.58;14.27;;;;;;;17.23;48.61;99304.03;4999213;28;20041;-78
2022/04/12 11:13:29;;;;;;;23.58;15.13;;;;;;;17.17;47.50;99294.66;5012134;28;20133;-80
2022/04/12 11:16:16;;;;;;;23.23;14.48;;;;;;;17.17;47.83;99284.97;4978515;28;20041;-80
2022/04/12 11:18:51;;;;;;;22.05;14.32;;;;;;;17.00;47.92;99287.50;5011432;28;20477;-80
2022/04/12 11:21:19;;;;;;;24.20;14.95;;;;;;;16.87;48.00;99279.25;4993792;28;20417;-81
2022/04/12 11:23:54;;;;;;;22.70;14.35;;;;;;;16.75;48.53;99280.66;4992787;28;20497;-81
2022/04/12 11:26:50;;;;;;;21.38;14.23;;;;;;;16.99;48.32;99270.88;5009863;28;20049;-76
2022/04/12 11:29:20;;;;;;;23.02;14.10;;;;;;;16.91;48.04;99278.22;5015969;28;20070;-84
2022/04/12 11:31:48;;;;;;;20.23;13.45;;;;;;;16.44;48.42;99232.03;5003685;28;20038;-83
2022/04/12 11:34:15;;;;;;;21.48;13.27;;;;;;;15.93;48.70;99177.25;5023421;28;20048;-85
2022/04/12 11:36:50;;;;;;;20.90;13.32;;;;;;;16.11;48.99;99180.03;5013512;28;20037;-86